sensor_id;sensor_type;location;lat;lon;timestamp;temperature;humidity
11848;DHT22;5983;49.966;8.052;2023-07-29T00:01:30;18.50;99.90
11848;DHT22;5983;49.966;8.052;2023-07-29T00:03:57;18.60;99.90
11848;DHT22;5983;49.966;8.052;2023-07-29T00:06:24;18.60;99.90
11848;DHT22;5983;49.966;8.052;2023-07-29T00:08:50;18.60;99.90
11848;DHT22;5983;49.966;8.052;2023-07-29T00:11:17;18.50;99.90
11848;DHT22;5983;49.966;8.052;2023-07-29T00:13:45;18.50;99.90
11848;DHT22;5983;49.966;8.052;2023-07-29T00:16:15;18.50;99.90
11848;DHT22;5983;49.966;8.052;2023-07-29T00:18:42;18.40;99.90
11848;DHT22;5983;49.966;8.052;2023-07-29T00:21:09;18.50;99.90
11848;DHT22;5983;49.966;8.052;2023-07-29T00:23:36;18.40;99.90
11848;DHT22;5983;49.966;8.052;2023-07-29T00:26:02;18.50;99.90
11848;DHT22;5983;49.966;8.052;2023-07-29T00:28:29;18.40;99.90
11848;DHT22;5983;49.966;8.052;2023-07-29T00:30:57;18.40;99.90
11848;DHT22;5983;49.966;8.052;2023-07-29T00:33:24;18.40;99.90
11848;DHT22;5983;49.966;8.052;2023-07-29T00:35:51;18.40;99.90
11848;DHT22;5983;49.966;8.052;2023-07-29T00:38:18;18.40;99.90
11848;DHT22;5983;49.966;8.052;2023-07-29T00:40:44;18.40;99.90
11848;DHT22;5983;49.966;8.052;2023-07-29T00:43:11;18.40;99.90
11848;DHT22;5983;49.966;8.052;2023-07-29T00:45:38;18.30;99.90
11848;DHT22;5983;49.966;8.052;2023-07-29T00:48:09;18.40;99.90
11848;DHT22;5983;49.966;8.052;2023-07-29T00:50:36;18.30;99.90
11848;DHT22;5983;49.966;8.052;2023-07-29T00:53:03;18.30;99.90
11848;DHT22;5983;49.966;8.052;2023-07-29T00:55:29;18.30;99.90
11848;DHT22;5983;49.966;8.052;2023-07-29T00:57:56;18.30;99.90
11848;DHT22;5983;49.966;8.052;2023-07-29T01:00:23;18.30;99.90
11848;DHT22;5983;49.966;8.052;2023-07-29T01:02:50;18.30;99.90
11848;DHT22;5983;49.966;8.052;2023-07-29T01:05:21;18.30;99.90
11848;DHT22;5983;49.966;8.052;2023-07-29T01:07:49;18.30;99.90
11848;DHT22;5983;49.966;8.052;2023-07-29T01:10:33;18.30;99.90
11848;DHT22;5983;49.966;8.052;2023-07-29T01:13:08;18.30;99.90
11848;DHT22;5983;49.966;8.052;2023-07-29T01:15:41;18.20;99.90
11848;DHT22;5983;49.966;8.052;2023-07-29T01:18:13;18.20;99.90
11848;DHT22;5983;49.966;8.052;2023-07-29T01:20:46;18.10;99.90
11848;DHT22;5983;49.966;8.052;2023-07-29T01:23:14;18.10;99.90
11848;DHT22;5983;49.966;8.052;2023-07-29T01:25:43;18.10;99.90
11848;DHT22;5983;49.966;8.052;2023-07-29T01:28:10;18.10;99.90
11848;DHT22;5983;49.966;8.052;2023-07-29T01:30:38;18.20;99.90
11848;DHT22;5983;49.966;8.052;2023-07-29T01:33:08;18.20;99.90
11848;DHT22;5983;49.966;8.052;2023-07-29T01:35:41;18.30;99.90
11848;DHT22;5983;49.966;8.052;2023-07-29T01:38:13;18.30;99.90
11848;DHT22;5983;49.966;8.052;2023-07-29T01:40:48;18.30;99.90
11848;DHT22;5983;49.966;8.052;2023-07-29T01:43:16;18.30;99.90
11848;DHT22;5983;49.966;8.052;2023-07-29T01:45:48;18.30;99.90
11848;DHT22;5983;49.966;8.052;2023-07-29T01:48:15;18.30;99.90
11848;DHT22;5983;49.966;8.052;2023-07-29T01:50:42;18.30;99.90
11848;DHT22;5983;49.966;8.052;2023-07-29T01:53:09;18.30;99.90
11848;DHT22;5983;49.966;8.052;2023-07-29T01:55:36;18.30;99.90
11848;DHT22;5983;49.966;8.052;2023-07-29T01:58:04;18.30;99.90
11848;DHT22;5983;49.966;8.052;2023-07-29T02:00:31;18.30;99.90
11848;DHT22;5983;49.966;8.052;2023-07-29T02:02:58;18.40;99.90
11848;DHT22;5983;49.966;8.052;2023-07-29T02:05:24;18.40;99.90
11848;DHT22;5983;49.966;8.052;2023-07-29T02:07:51;18.40;99.90
11848;DHT22;5983;49.966;8.052;2023-07-29T02:10:18;18.40;99.90
11848;DHT22;5983;49.966;8.052;2023-07-29T02:12:44;18.40;99.90
11848;DHT22;5983;49.966;8.052;2023-07-29T02:15:12;18.50;99.90
11848;DHT22;5983;49.966;8.052;2023-07-29T02:17:40;18.50;99.90
11848;DHT22;5983;49.966;8.052;2023-07-29T02:20:08;18.50;99.90
11848;DHT22;5983;49.966;8.052;2023-07-29T02:22:36;18.40;99.90
11848;DHT22;5983;49.966;8.052;2023-07-29T02:25:03;18.50;99.90
11848;DHT22;5983;49.966;8.052;2023-07-29T02:27:30;18.40;99.90
11848;DHT22;5983;49.966;8.052;2023-07-29T02:29:56;18.50;99.90
11848;DHT22;5983;49.966;8.052;2023-07-29T02:32:24;18.40;99.90
11848;DHT22;5983;49.966;8.052;2023-07-29T02:34:51;18.40;99.90
11848;DHT22;5983;49.966;8.052;2023-07-29T02:37:18;18.40;99.90
11848;DHT22;5983;49.966;8.052;2023-07-29T02:39:45;18.40;99.90
11848;DHT22;5983;49.966;8.052;2023-07-29T02:42:12;18.40;99.90
11848;DHT22;5983;49.966;8.052;2023-07-29T02:44:39;18.30;99.90
11848;DHT22;5983;49.966;8.052;2023-07-29T02:47:06;18.30;99.90
11848;DHT22;5983;49.966;8.052;2023-07-29T02:49:34;18.30;99.90
11848;DHT22;5983;49.966;8.052;2023-07-29T02:52:01;18.30;99.90
11848;DHT22;5983;49.966;8.052;2023-07-29T02:54:28;18.20;99.90
11848;DHT22;5983;49.966;8.052;2023-07-29T02:56:54;18.20;99.90
11848;DHT22;5983;49.966;8.052;2023-07-29T02:59:21;18.20;99.90
11848;DHT22;5983;49.966;8.052;2023-07-29T03:01:48;18.20;99.90
11848;DHT22;5983;49.966;8.052;2023-07-29T03:04:14;18.20;99.90
11848;DHT22;5983;49.966;8.052;2023-07-29T03:06:42;18.10;99.90
11848;DHT22;5983;49.966;8.052;2023-07-29T03:09:09;18.10;99.90
11848;DHT22;5983;49.966;8.052;2023-07-29T03:11:36;18.10;99.90
11848;DHT22;5983;49.966;8.052;2023-07-29T03:14:03;18.10;99.90
11848;DHT22;5983;49.966;8.052;2023-07-29T03:16:29;18.10;99.90
11848;DHT22;5983;49.966;8.052;2023-07-29T03:18:56;18.10;99.90
11848;DHT22;5983;49.966;8.052;2023-07-29T03:21:25;18.10;99.90
11848;DHT22;5983;49.966;8.052;2023-07-29T03:23:53;18.10;99.90
11848;DHT22;5983;49.966;8.052;2023-07-29T03:26:20;18.10;99.90
11848;DHT22;5983;49.966;8.052;2023-07-29T03:28:47;18.10;99.90
11848;DHT22;5983;49.966;8.052;2023-07-29T03:31:13;18.10;99.90
11848;DHT22;5983;49.966;8.052;2023-07-29T03:33:40;18.10;99.90
11848;DHT22;5983;49.966;8.052;2023-07-29T03:36:07;18.10;99.90
11848;DHT22;5983;49.966;8.052;2023-07-29T03:38:34;18.10;99.90
11848;DHT22;5983;49.966;8.052;2023-07-29T03:41:06;18.10;99.90
11848;DHT22;5983;49.966;8.052;2023-07-29T03:43:33;18.10;99.90
11848;DHT22;5983;49.966;8.052;2023-07-29T03:46:00;18.00;99.90
11848;DHT22;5983;49.966;8.052;2023-07-29T03:48:27;18.00;99.90
11848;DHT22;5983;49.966;8.052;2023-07-29T03:50:54;18.00;99.90
11848;DHT22;5983;49.966;8.052;2023-07-29T03:53:21;18.00;99.90
11848;DHT22;5983;49.966;8.052;2023-07-29T03:55:47;18.00;99.90
11848;DHT22;5983;49.966;8.052;2023-07-29T03:58:16;18.00;99.90
11848;DHT22;5983;49.966;8.052;2023-07-29T04:00:43;18.00;99.90
11848;DHT22;5983;49.966;8.052;2023-07-29T04:03:10;18.00;99.90
11848;DHT22;5983;49.966;8.052;2023-07-29T04:05:36;18.00;99.90
11848;DHT22;5983;49.966;8.052;2023-07-29T04:08:03;18.00;99.90
11848;DHT22;5983;49.966;8.052;2023-07-29T04:10:30;18.00;99.90
11848;DHT22;5983;49.966;8.052;2023-07-29T04:12:57;18.10;99.90
11848;DHT22;5983;49.966;8.052;2023-07-29T04:15:25;18.10;99.90
11848;DHT22;5983;49.966;8.052;2023-07-29T04:17:52;18.10;99.90
11848;DHT22;5983;49.966;8.052;2023-07-29T04:20:18;18.10;99.90
11848;DHT22;5983;49.966;8.052;2023-07-29T04:22:45;18.10;99.90
11848;DHT22;5983;49.966;8.052;2023-07-29T04:25:12;18.10;99.90
11848;DHT22;5983;49.966;8.052;2023-07-29T04:27:39;18.10;99.90
11848;DHT22;5983;49.966;8.052;2023-07-29T04:30:06;18.20;99.90
11848;DHT22;5983;49.966;8.052;2023-07-29T04:32:35;18.20;99.90
11848;DHT22;5983;49.966;8.052;2023-07-29T04:35:02;18.20;99.90
11848;DHT22;5983;49.966;8.052;2023-07-29T04:37:29;18.20;99.90
11848;DHT22;5983;49.966;8.052;2023-07-29T04:39:55;18.30;99.90
11848;DHT22;5983;49.966;8.052;2023-07-29T04:42:22;18.20;99.90
11848;DHT22;5983;49.966;8.052;2023-07-29T04:44:49;18.30;99.90
11848;DHT22;5983;49.966;8.052;2023-07-29T04:47:15;18.40;99.90
11848;DHT22;5983;49.966;8.052;2023-07-29T04:49:44;18.40;99.90
11848;DHT22;5983;49.966;8.052;2023-07-29T04:52:10;18.50;99.90
11848;DHT22;5983;49.966;8.052;2023-07-29T04:54:38;18.50;99.90
11848;DHT22;5983;49.966;8.052;2023-07-29T04:57:05;18.50;99.90
11848;DHT22;5983;49.966;8.052;2023-07-29T04:59:31;18.60;99.90
11848;DHT22;5983;49.966;8.052;2023-07-29T05:01:58;18.70;99.90
11848;DHT22;5983;49.966;8.052;2023-07-29T05:04:25;18.70;99.90
11848;DHT22;5983;49.966;8.052;2023-07-29T05:06:53;18.70;99.90
11848;DHT22;5983;49.966;8.052;2023-07-29T05:09:20;18.80;99.90
11848;DHT22;5983;49.966;8.052;2023-07-29T05:11:47;18.80;99.90
11848;DHT22;5983;49.966;8.052;2023-07-29T05:14:14;18.90;99.90
11848;DHT22;5983;49.966;8.052;2023-07-29T05:16:42;18.90;99.90
11848;DHT22;5983;49.966;8.052;2023-07-29T05:19:09;18.90;99.90
11848;DHT22;5983;49.966;8.052;2023-07-29T05:21:37;18.90;99.90
11848;DHT22;5983;49.966;8.052;2023-07-29T05:24:05;18.90;99.90
11848;DHT22;5983;49.966;8.052;2023-07-29T05:26:32;19.00;99.90
11848;DHT22;5983;49.966;8.052;2023-07-29T05:28:59;19.00;99.90
11848;DHT22;5983;49.966;8.052;2023-07-29T05:31:26;19.00;99.90
11848;DHT22;5983;49.966;8.052;2023-07-29T05:33:53;19.00;99.90
11848;DHT22;5983;49.966;8.052;2023-07-29T05:36:19;19.00;99.90
11848;DHT22;5983;49.966;8.052;2023-07-29T05:38:46;19.00;99.90
11848;DHT22;5983;49.966;8.052;2023-07-29T05:41:14;19.00;99.90
11848;DHT22;5983;49.966;8.052;2023-07-29T05:43:41;19.00;99.90
11848;DHT22;5983;49.966;8.052;2023-07-29T05:46:08;19.00;99.90
11848;DHT22;5983;49.966;8.052;2023-07-29T05:48:35;19.00;99.90
11848;DHT22;5983;49.966;8.052;2023-07-29T05:51:02;18.90;99.90
11848;DHT22;5983;49.966;8.052;2023-07-29T05:53:30;18.90;99.90
11848;DHT22;5983;49.966;8.052;2023-07-29T05:55:57;18.90;99.90
11848;DHT22;5983;49.966;8.052;2023-07-29T05:58:25;18.90;99.90
11848;DHT22;5983;49.966;8.052;2023-07-29T06:00:52;18.90;99.90
11848;DHT22;5983;49.966;8.052;2023-07-29T06:03:19;18.90;99.90
11848;DHT22;5983;49.966;8.052;2023-07-29T06:05:46;18.90;99.90
11848;DHT22;5983;49.966;8.052;2023-07-29T06:08:13;18.90;99.90
11848;DHT22;5983;49.966;8.052;2023-07-29T06:10:40;18.90;99.90
11848;DHT22;5983;49.966;8.052;2023-07-29T06:13:06;18.90;99.90
11848;DHT22;5983;49.966;8.052;2023-07-29T06:15:35;18.90;99.90
11848;DHT22;5983;49.966;8.052;2023-07-29T06:18:01;19.00;99.90
11848;DHT22;5983;49.966;8.052;2023-07-29T06:20:28;19.00;99.90
11848;DHT22;5983;49.966;8.052;2023-07-29T06:22:55;18.90;99.90
11848;DHT22;5983;49.966;8.052;2023-07-29T06:25:22;18.90;99.90
11848;DHT22;5983;49.966;8.052;2023-07-29T06:27:48;18.90;99.90
11848;DHT22;5983;49.966;8.052;2023-07-29T06:30:15;18.90;99.90
11848;DHT22;5983;49.966;8.052;2023-07-29T06:32:43;18.90;99.90
11848;DHT22;5983;49.966;8.052;2023-07-29T06:35:10;18.80;99.90
11848;DHT22;5983;49.966;8.052;2023-07-29T06:37:37;18.80;99.90
11848;DHT22;5983;49.966;8.052;2023-07-29T06:40:05;18.80;99.90
11848;DHT22;5983;49.966;8.052;2023-07-29T06:42:32;18.80;99.90
11848;DHT22;5983;49.966;8.052;2023-07-29T06:44:59;18.80;99.90
11848;DHT22;5983;49.966;8.052;2023-07-29T06:47:25;18.80;99.90
11848;DHT22;5983;49.966;8.052;2023-07-29T06:49:54;18.80;99.90
11848;DHT22;5983;49.966;8.052;2023-07-29T06:52:21;18.80;99.90
11848;DHT22;5983;49.966;8.052;2023-07-29T06:54:48;18.90;99.90
11848;DHT22;5983;49.966;8.052;2023-07-29T06:57:14;18.90;99.90
11848;DHT22;5983;49.966;8.052;2023-07-29T06:59:41;18.90;99.90
11848;DHT22;5983;49.966;8.052;2023-07-29T07:02:08;19.00;99.90
11848;DHT22;5983;49.966;8.052;2023-07-29T07:04:35;19.00;99.90
11848;DHT22;5983;49.966;8.052;2023-07-29T07:07:03;19.00;99.90
11848;DHT22;5983;49.966;8.052;2023-07-29T07:09:31;19.10;99.90
11848;DHT22;5983;49.966;8.052;2023-07-29T07:11:57;19.20;99.90
11848;DHT22;5983;49.966;8.052;2023-07-29T07:14:24;19.20;99.90
11848;DHT22;5983;49.966;8.052;2023-07-29T07:16:51;19.30;99.90
11848;DHT22;5983;49.966;8.052;2023-07-29T07:19:18;19.40;99.90
11848;DHT22;5983;49.966;8.052;2023-07-29T07:21:44;19.40;99.90
11848;DHT22;5983;49.966;8.052;2023-07-29T07:24:12;19.40;99.90
11848;DHT22;5983;49.966;8.052;2023-07-29T07:26:39;19.40;99.90
11848;DHT22;5983;49.966;8.052;2023-07-29T07:29:06;19.40;99.90
11848;DHT22;5983;49.966;8.052;2023-07-29T07:31:33;19.50;99.90
11848;DHT22;5983;49.966;8.052;2023-07-29T07:34:00;19.50;99.90
11848;DHT22;5983;49.966;8.052;2023-07-29T07:36:28;19.60;99.90
11848;DHT22;5983;49.966;8.052;2023-07-29T07:38:55;19.70;99.90
11848;DHT22;5983;49.966;8.052;2023-07-29T07:41:23;19.70;99.90
11848;DHT22;5983;49.966;8.052;2023-07-29T07:43:50;19.90;99.90
11848;DHT22;5983;49.966;8.052;2023-07-29T07:46:17;20.00;99.90
11848;DHT22;5983;49.966;8.052;2023-07-29T07:48:43;20.20;99.90
11848;DHT22;5983;49.966;8.052;2023-07-29T07:51:10;20.50;99.90
11848;DHT22;5983;49.966;8.052;2023-07-29T07:53:38;20.70;99.90
11848;DHT22;5983;49.966;8.052;2023-07-29T07:56:05;20.90;99.90
11848;DHT22;5983;49.966;8.052;2023-07-29T07:58:33;20.90;99.90
11848;DHT22;5983;49.966;8.052;2023-07-29T08:01:03;21.10;99.90
11848;DHT22;5983;49.966;8.052;2023-07-29T08:03:31;21.30;99.90
11848;DHT22;5983;49.966;8.052;2023-07-29T08:05:58;21.20;99.90
11848;DHT22;5983;49.966;8.052;2023-07-29T08:08:25;21.30;99.90
11848;DHT22;5983;49.966;8.052;2023-07-29T08:10:53;21.30;99.90
11848;DHT22;5983;49.966;8.052;2023-07-29T08:13:20;21.50;99.90
11848;DHT22;5983;49.966;8.052;2023-07-29T08:15:50;21.50;99.90
11848;DHT22;5983;49.966;8.052;2023-07-29T08:18:18;21.60;99.90
11848;DHT22;5983;49.966;8.052;2023-07-29T08:20:52;21.90;99.90
11848;DHT22;5983;49.966;8.052;2023-07-29T08:23:20;22.20;99.90
11848;DHT22;5983;49.966;8.052;2023-07-29T08:25:52;22.20;99.90
11848;DHT22;5983;49.966;8.052;2023-07-29T08:28:19;22.40;99.90
11848;DHT22;5983;49.966;8.052;2023-07-29T08:30:46;22.70;99.90
11848;DHT22;5983;49.966;8.052;2023-07-29T08:33:15;22.90;99.90
11848;DHT22;5983;49.966;8.052;2023-07-29T08:35:42;23.00;99.90
11848;DHT22;5983;49.966;8.052;2023-07-29T08:38:09;22.90;99.90
11848;DHT22;5983;49.966;8.052;2023-07-29T08:40:37;23.00;99.90
11848;DHT22;5983;49.966;8.052;2023-07-29T08:43:08;23.10;99.90
11848;DHT22;5983;49.966;8.052;2023-07-29T08:45:37;23.30;99.90
11848;DHT22;5983;49.966;8.052;2023-07-29T08:48:07;23.40;99.90
11848;DHT22;5983;49.966;8.052;2023-07-29T08:50:37;23.40;99.90
11848;DHT22;5983;49.966;8.052;2023-07-29T08:53:04;23.40;99.90
11848;DHT22;5983;49.966;8.052;2023-07-29T08:55:31;23.30;99.90
11848;DHT22;5983;49.966;8.052;2023-07-29T08:57:59;23.20;99.90
11848;DHT22;5983;49.966;8.052;2023-07-29T09:00:26;23.10;99.90
11848;DHT22;5983;49.966;8.052;2023-07-29T09:02:54;22.90;99.90
11848;DHT22;5983;49.966;8.052;2023-07-29T09:05:23;22.80;99.90
11848;DHT22;5983;49.966;8.052;2023-07-29T09:07:51;22.70;99.90
11848;DHT22;5983;49.966;8.052;2023-07-29T09:10:21;22.80;99.90
11848;DHT22;5983;49.966;8.052;2023-07-29T09:12:48;22.90;99.90
11848;DHT22;5983;49.966;8.052;2023-07-29T09:15:25;23.00;99.90
11848;DHT22;5983;49.966;8.052;2023-07-29T09:17:53;23.00;99.90
11848;DHT22;5983;49.966;8.052;2023-07-29T09:20:23;23.10;99.90
11848;DHT22;5983;49.966;8.052;2023-07-29T09:22:52;23.30;99.90
11848;DHT22;5983;49.966;8.052;2023-07-29T09:28:26;23.20;99.90
11848;DHT22;5983;49.966;8.052;2023-07-29T09:30:59;23.20;99.90
11848;DHT22;5983;49.966;8.052;2023-07-29T09:33:26;23.10;99.90
11848;DHT22;5983;49.966;8.052;2023-07-29T09:35:53;23.10;99.90
11848;DHT22;5983;49.966;8.052;2023-07-29T09:38:25;22.90;99.90
11848;DHT22;5983;49.966;8.052;2023-07-29T09:40:54;22.90;99.90
11848;DHT22;5983;49.966;8.052;2023-07-29T09:43:24;23.10;99.90
11848;DHT22;5983;49.966;8.052;2023-07-29T09:45:51;23.40;99.90
11848;DHT22;5983;49.966;8.052;2023-07-29T09:48:19;23.80;99.90
11848;DHT22;5983;49.966;8.052;2023-07-29T09:50:49;24.00;99.90
11848;DHT22;5983;49.966;8.052;2023-07-29T09:53:15;24.00;99.90
11848;DHT22;5983;49.966;8.052;2023-07-29T09:55:47;24.00;99.90
11848;DHT22;5983;49.966;8.052;2023-07-29T09:58:17;24.30;99.90
11848;DHT22;5983;49.966;8.052;2023-07-29T10:00:46;24.50;99.90
11848;DHT22;5983;49.966;8.052;2023-07-29T10:03:13;24.80;99.90
11848;DHT22;5983;49.966;8.052;2023-07-29T10:05:41;25.00;99.90
11848;DHT22;5983;49.966;8.052;2023-07-29T10:08:08;25.10;99.90
11848;DHT22;5983;49.966;8.052;2023-07-29T10:10:37;25.30;99.90
11848;DHT22;5983;49.966;8.052;2023-07-29T10:13:05;25.20;99.90
11848;DHT22;5983;49.966;8.052;2023-07-29T10:15:33;25.20;99.90
11848;DHT22;5983;49.966;8.052;2023-07-29T10:18:00;25.10;99.90
11848;DHT22;5983;49.966;8.052;2023-07-29T10:20:28;25.00;99.90
11848;DHT22;5983;49.966;8.052;2023-07-29T10:22:57;24.90;99.90
11848;DHT22;5983;49.966;8.052;2023-07-29T10:25:27;24.60;99.90
11848;DHT22;5983;49.966;8.052;2023-07-29T10:28:05;24.30;99.90
11848;DHT22;5983;49.966;8.052;2023-07-29T10:30:32;24.10;99.90
11848;DHT22;5983;49.966;8.052;2023-07-29T10:33:01;23.80;99.90
11848;DHT22;5983;49.966;8.052;2023-07-29T10:35:29;23.70;99.90
11848;DHT22;5983;49.966;8.052;2023-07-29T10:37:56;23.70;99.90
11848;DHT22;5983;49.966;8.052;2023-07-29T10:40:23;23.90;99.90
11848;DHT22;5983;49.966;8.052;2023-07-29T10:45:38;24.40;99.90
11848;DHT22;5983;49.966;8.052;2023-07-29T10:48:06;24.70;99.90
11848;DHT22;5983;49.966;8.052;2023-07-29T10:50:36;24.90;99.90
11848;DHT22;5983;49.966;8.052;2023-07-29T10:53:03;25.10;99.90
11848;DHT22;5983;49.966;8.052;2023-07-29T10:55:31;25.10;99.90
11848;DHT22;5983;49.966;8.052;2023-07-29T10:58:06;24.90;99.90
11848;DHT22;5983;49.966;8.052;2023-07-29T11:00:42;25.00;99.90
11848;DHT22;5983;49.966;8.052;2023-07-29T11:03:09;25.20;99.90
11848;DHT22;5983;49.966;8.052;2023-07-29T11:05:49;25.50;99.90
11848;DHT22;5983;49.966;8.052;2023-07-29T11:10:48;25.90;99.90
11848;DHT22;5983;49.966;8.052;2023-07-29T11:13:27;25.80;99.90
11848;DHT22;5983;49.966;8.052;2023-07-29T11:15:54;25.60;99.90
11848;DHT22;5983;49.966;8.052;2023-07-29T11:18:25;25.40;99.90
11848;DHT22;5983;49.966;8.052;2023-07-29T11:20:53;25.30;99.90
11848;DHT22;5983;49.966;8.052;2023-07-29T11:23:20;25.40;99.90
11848;DHT22;5983;49.966;8.052;2023-07-29T11:25:54;25.40;99.90
11848;DHT22;5983;49.966;8.052;2023-07-29T11:28:20;25.50;99.90
11848;DHT22;5983;49.966;8.052;2023-07-29T11:30:50;25.40;99.90
11848;DHT22;5983;49.966;8.052;2023-07-29T11:33:17;25.30;99.90
11848;DHT22;5983;49.966;8.052;2023-07-29T11:35:45;25.20;99.90
11848;DHT22;5983;49.966;8.052;2023-07-29T11:38:14;25.20;99.90
11848;DHT22;5983;49.966;8.052;2023-07-29T11:40:41;25.20;99.90
11848;DHT22;5983;49.966;8.052;2023-07-29T11:43:08;25.30;99.90
11848;DHT22;5983;49.966;8.052;2023-07-29T11:45:35;25.60;99.90
11848;DHT22;5983;49.966;8.052;2023-07-29T11:48:03;25.80;99.90
11848;DHT22;5983;49.966;8.052;2023-07-29T11:50:30;26.10;99.90
11848;DHT22;5983;49.966;8.052;2023-07-29T11:52:57;26.30;99.90
11848;DHT22;5983;49.966;8.052;2023-07-29T11:55:24;26.50;99.90
11848;DHT22;5983;49.966;8.052;2023-07-29T11:57:51;26.70;99.90
11848;DHT22;5983;49.966;8.052;2023-07-29T12:00:18;26.80;99.90
11848;DHT22;5983;49.966;8.052;2023-07-29T12:02:47;26.90;99.90
11848;DHT22;5983;49.966;8.052;2023-07-29T12:05:17;26.90;99.90
11848;DHT22;5983;49.966;8.052;2023-07-29T12:07:46;26.80;99.90
11848;DHT22;5983;49.966;8.052;2023-07-29T12:10:13;26.90;99.90
11848;DHT22;5983;49.966;8.052;2023-07-29T12:12:43;26.80;99.90
11848;DHT22;5983;49.966;8.052;2023-07-29T12:15:11;26.60;99.90
11848;DHT22;5983;49.966;8.052;2023-07-29T12:17:39;26.60;99.90
11848;DHT22;5983;49.966;8.052;2023-07-29T12:20:08;26.70;99.90
11848;DHT22;5983;49.966;8.052;2023-07-29T12:22:36;26.70;99.90
11848;DHT22;5983;49.966;8.052;2023-07-29T12:25:03;26.70;99.90
11848;DHT22;5983;49.966;8.052;2023-07-29T12:27:31;26.60;99.90
11848;DHT22;5983;49.966;8.052;2023-07-29T12:30:00;26.50;99.90
11848;DHT22;5983;49.966;8.052;2023-07-29T12:32:28;26.60;99.90
11848;DHT22;5983;49.966;8.052;2023-07-29T12:34:55;26.60;99.90
11848;DHT22;5983;49.966;8.052;2023-07-29T12:37:30;26.60;99.90
11848;DHT22;5983;49.966;8.052;2023-07-29T12:39:59;26.60;99.90
11848;DHT22;5983;49.966;8.052;2023-07-29T12:42:25;26.50;99.90
11848;DHT22;5983;49.966;8.052;2023-07-29T12:44:52;26.40;99.90
11848;DHT22;5983;49.966;8.052;2023-07-29T12:47:19;26.30;99.90
11848;DHT22;5983;49.966;8.052;2023-07-29T12:49:46;26.30;99.90
11848;DHT22;5983;49.966;8.052;2023-07-29T12:52:13;26.20;99.90
11848;DHT22;5983;49.966;8.052;2023-07-29T12:54:40;26.40;99.90
11848;DHT22;5983;49.966;8.052;2023-07-29T12:57:10;26.50;99.90
11848;DHT22;5983;49.966;8.052;2023-07-29T12:59:37;26.60;99.90
11848;DHT22;5983;49.966;8.052;2023-07-29T13:02:04;26.60;99.90
11848;DHT22;5983;49.966;8.052;2023-07-29T13:04:31;26.50;99.90
11848;DHT22;5983;49.966;8.052;2023-07-29T13:06:57;26.50;99.90
11848;DHT22;5983;49.966;8.052;2023-07-29T13:09:25;26.40;99.90
11848;DHT22;5983;49.966;8.052;2023-07-29T13:11:51;26.40;99.90
11848;DHT22;5983;49.966;8.052;2023-07-29T13:14:20;26.40;99.90
11848;DHT22;5983;49.966;8.052;2023-07-29T13:16:46;26.60;99.90
11848;DHT22;5983;49.966;8.052;2023-07-29T13:19:13;26.70;99.90
11848;DHT22;5983;49.966;8.052;2023-07-29T13:21:40;26.90;99.90
11848;DHT22;5983;49.966;8.052;2023-07-29T13:24:06;27.10;99.90
11848;DHT22;5983;49.966;8.052;2023-07-29T13:26:33;27.20;99.90
11848;DHT22;5983;49.966;8.052;2023-07-29T13:29:00;27.50;99.90
11848;DHT22;5983;49.966;8.052;2023-07-29T13:31:30;27.50;99.90
11848;DHT22;5983;49.966;8.052;2023-07-29T13:33:57;27.60;99.90
11848;DHT22;5983;49.966;8.052;2023-07-29T13:36:24;27.60;99.90
11848;DHT22;5983;49.966;8.052;2023-07-29T13:38:51;27.60;99.90
11848;DHT22;5983;49.966;8.052;2023-07-29T13:41:17;27.60;99.90
11848;DHT22;5983;49.966;8.052;2023-07-29T13:43:44;27.50;99.90
11848;DHT22;5983;49.966;8.052;2023-07-29T13:46:11;27.40;99.90
11848;DHT22;5983;49.966;8.052;2023-07-29T13:48:39;27.20;99.90
11848;DHT22;5983;49.966;8.052;2023-07-29T13:51:05;27.10;99.90
11848;DHT22;5983;49.966;8.052;2023-07-29T13:53:32;27.00;99.90
11848;DHT22;5983;49.966;8.052;2023-07-29T13:55:59;26.80;99.90
11848;DHT22;5983;49.966;8.052;2023-07-29T13:58:26;26.80;99.90
11848;DHT22;5983;49.966;8.052;2023-07-29T14:00:52;26.90;99.90
11848;DHT22;5983;49.966;8.052;2023-07-29T14:03:19;26.90;99.90
11848;DHT22;5983;49.966;8.052;2023-07-29T14:05:47;27.00;99.90
11848;DHT22;5983;49.966;8.052;2023-07-29T14:08:14;27.00;99.90
11848;DHT22;5983;49.966;8.052;2023-07-29T14:10:41;26.90;99.90
11848;DHT22;5983;49.966;8.052;2023-07-29T14:13:07;26.70;99.90
11848;DHT22;5983;49.966;8.052;2023-07-29T14:15:34;26.60;99.90
11848;DHT22;5983;49.966;8.052;2023-07-29T14:18:01;26.70;99.90
11848;DHT22;5983;49.966;8.052;2023-07-29T14:20:28;26.80;99.90
11848;DHT22;5983;49.966;8.052;2023-07-29T14:22:56;27.00;99.90
11848;DHT22;5983;49.966;8.052;2023-07-29T14:25:23;27.10;99.90
11848;DHT22;5983;49.966;8.052;2023-07-29T14:27:50;27.10;99.90
11848;DHT22;5983;49.966;8.052;2023-07-29T14:30:17;26.90;99.90
11848;DHT22;5983;49.966;8.052;2023-07-29T14:32:43;26.70;99.90
11848;DHT22;5983;49.966;8.052;2023-07-29T14:35:10;26.70;99.90
11848;DHT22;5983;49.966;8.052;2023-07-29T14:37:37;26.80;99.90
11848;DHT22;5983;49.966;8.052;2023-07-29T14:40:06;26.90;99.90
11848;DHT22;5983;49.966;8.052;2023-07-29T14:42:33;27.00;99.90
11848;DHT22;5983;49.966;8.052;2023-07-29T14:45:00;27.00;99.90
11848;DHT22;5983;49.966;8.052;2023-07-29T14:47:27;27.00;99.90
11848;DHT22;5983;49.966;8.052;2023-07-29T14:49:53;26.80;99.90
11848;DHT22;5983;49.966;8.052;2023-07-29T14:52:20;26.80;99.90
11848;DHT22;5983;49.966;8.052;2023-07-29T14:54:47;26.70;99.90
11848;DHT22;5983;49.966;8.052;2023-07-29T14:57:15;26.70;99.90
11848;DHT22;5983;49.966;8.052;2023-07-29T14:59:43;26.70;99.90
11848;DHT22;5983;49.966;8.052;2023-07-29T15:02:10;26.60;99.90
11848;DHT22;5983;49.966;8.052;2023-07-29T15:04:36;26.50;99.90
11848;DHT22;5983;49.966;8.052;2023-07-29T15:07:03;26.50;99.90
11848;DHT22;5983;49.966;8.052;2023-07-29T15:09:31;26.50;99.90
11848;DHT22;5983;49.966;8.052;2023-07-29T15:11:57;26.50;99.90
11848;DHT22;5983;49.966;8.052;2023-07-29T15:14:26;26.60;99.90
11848;DHT22;5983;49.966;8.052;2023-07-29T15:16:52;26.70;99.90
11848;DHT22;5983;49.966;8.052;2023-07-29T15:19:19;26.70;99.90
11848;DHT22;5983;49.966;8.052;2023-07-29T15:21:46;26.70;99.90
11848;DHT22;5983;49.966;8.052;2023-07-29T15:24:13;26.70;99.90
11848;DHT22;5983;49.966;8.052;2023-07-29T15:26:40;26.60;99.90
11848;DHT22;5983;49.966;8.052;2023-07-29T15:29:07;26.40;99.90
11848;DHT22;5983;49.966;8.052;2023-07-29T15:31:35;26.40;99.90
11848;DHT22;5983;49.966;8.052;2023-07-29T15:34:02;26.40;99.90
11848;DHT22;5983;49.966;8.052;2023-07-29T15:36:28;26.40;99.90
11848;DHT22;5983;49.966;8.052;2023-07-29T15:38:55;26.30;99.90
11848;DHT22;5983;49.966;8.052;2023-07-29T15:41:22;26.30;99.90
11848;DHT22;5983;49.966;8.052;2023-07-29T15:43:49;26.30;99.90
11848;DHT22;5983;49.966;8.052;2023-07-29T15:46:15;26.20;99.90
11848;DHT22;5983;49.966;8.052;2023-07-29T15:48:44;26.20;99.90
11848;DHT22;5983;49.966;8.052;2023-07-29T15:51:11;26.30;99.90
11848;DHT22;5983;49.966;8.052;2023-07-29T15:53:37;26.20;99.90
11848;DHT22;5983;49.966;8.052;2023-07-29T15:56:04;26.20;99.90